PWSweather.com
Personal Weather Stations
Station Observations
COONRAPIDS
Minneapolis, MN 55433

Minneapolis, MN 55433

Lat: 45.187721, Lon: -93.36828

Elevation: 898

Station Type: Davis Vantage Pro 2

High Low Average
Temperature 10.2°F-12.1°C -5.7°F-20.9°C 1.7°F-16.8°C
Dew Point 0.4°F-17.6°C -12.2°F-24.6°C -6.6°F-21.4°C
Winds 4.6 mph 7.4 kmh Calm Calm 1.0 mph NW1.6 kmh NW
Wind Gusts 13.8 mph22.2 kmh -- 3.0 mph4.8 kmh
Humidity 74% 58% 67%
Pressure 30.46 in1031.5 mb 30.14 in1020.7 mb -
Precipitation 0.00 in0.0 mm - -
Hour Temp Dew Point Humidity Winds Wind Gusts Pressure Precip Precip Rate Daily Precip Total
12:00 AM 12.1°F-11.1°C 3.2°F-16.0°C 67% 4.6 mph NW7.4 kmh NW 11.5 mph18.5 kmh 30.09 in1019.0 mb - 0.00 in0.0 mm 0.00 in0.0 mm
12:10 AM 11.8°F-11.2°C 2.9°F-16.2°C 67% Calm Calm 3.5 mph5.6 kmh 30.09 in1019.0 mb - 0.00 in0.0 mm 0.00 in0.0 mm
12:20 AM 11.4°F-11.4°C 2.9°F-16.2°C 68% 2.3 mph NW3.7 kmh NW 10.4 mph16.7 kmh 30.10 in1019.3 mb - 0.00 in0.0 mm 0.00 in0.0 mm
12:30 AM 11.1°F-11.6°C 2.6°F-16.3°C 68% 3.5 mph NW5.6 kmh NW 6.9 mph11.1 kmh 30.12 in1020.0 mb - 0.00 in0.0 mm 0.00 in0.0 mm
12:40 AM 10.9°F-11.7°C 2.1°F-16.6°C 67% 2.3 mph NNW3.7 kmh NNW 4.6 mph7.4 kmh 30.13 in1020.3 mb - 0.00 in0.0 mm 0.00 in0.0 mm
12:50 AM 10.6°F-11.9°C 1.1°F-17.2°C 65% 4.6 mph NW7.4 kmh NW 9.2 mph14.8 kmh 30.14 in1020.7 mb - 0.00 in0.0 mm 0.00 in0.0 mm
01:00 AM 10.2°F-12.1°C 0.4°F-17.6°C 64% 1.2 mph NW1.9 kmh NW 8.1 mph13.0 kmh 30.15 in1021.0 mb - 0.00 in0.0 mm 0.00 in0.0 mm
01:10 AM 9.8°F-12.3°C 0.3°F-17.6°C 65% 4.6 mph NNW7.4 kmh NNW 5.8 mph9.3 kmh 30.14 in1020.7 mb - 0.00 in0.0 mm 0.00 in0.0 mm
01:20 AM 9.5°F-12.5°C 0.1°F-17.7°C 65% 1.2 mph WNW1.9 kmh WNW 5.8 mph9.3 kmh 30.15 in1021.0 mb - 0.00 in0.0 mm 0.00 in0.0 mm
01:30 AM 9.1°F-12.7°C -0.3°F-17.9°C 65% 4.6 mph NNW7.4 kmh NNW 12.7 mph20.4 kmh 30.14 in1020.7 mb - 0.00 in0.0 mm 0.00 in0.0 mm
01:40 AM 8.6°F-13.0°C -0.5°F-18.1°C 66% 1.2 mph NW1.9 kmh NW 4.6 mph7.4 kmh 30.15 in1021.0 mb - 0.00 in0.0 mm 0.00 in0.0 mm
01:50 AM 8.1°F-13.3°C -0.6°F-18.1°C 67% 2.3 mph NNW3.7 kmh NNW 3.5 mph5.6 kmh 30.15 in1021.0 mb - 0.00 in0.0 mm 0.00 in0.0 mm
02:00 AM 7.8°F-13.4°C -0.9°F-18.3°C 67% 2.3 mph NNW3.7 kmh NNW 4.6 mph7.4 kmh 30.14 in1020.7 mb - 0.00 in0.0 mm 0.00 in0.0 mm
02:10 AM 7.4°F-13.7°C -1.3°F-18.5°C 67% 2.3 mph NNW3.7 kmh NNW 5.8 mph9.3 kmh 30.16 in1021.3 mb - 0.00 in0.0 mm 0.00 in0.0 mm
02:20 AM 7.3°F-13.7°C -1.7°F-18.7°C 66% 4.6 mph NW7.4 kmh NW 6.9 mph11.1 kmh 30.16 in1021.3 mb - 0.00 in0.0 mm 0.00 in0.0 mm
02:30 AM 7.1°F-13.8°C -1.9°F-18.8°C 66% 1.2 mph NW1.9 kmh NW 8.1 mph13.0 kmh 30.17 in1021.7 mb - 0.00 in0.0 mm 0.00 in0.0 mm
02:40 AM 6.8°F-14.0°C -2.2°F-19.0°C 66% 1.2 mph NW1.9 kmh NW 5.8 mph9.3 kmh 30.17 in1021.7 mb - 0.00 in0.0 mm 0.00 in0.0 mm
02:50 AM 6.5°F-14.2°C -2.5°F-19.2°C 66% 1.2 mph NW1.9 kmh NW 5.8 mph9.3 kmh 30.18 in1022.0 mb - 0.00 in0.0 mm 0.00 in0.0 mm
03:00 AM 6.2°F-14.3°C -3.1°F-19.5°C 65% 2.3 mph N3.7 kmh N 3.5 mph5.6 kmh 30.19 in1022.4 mb - 0.00 in0.0 mm 0.00 in0.0 mm
03:10 AM 6.0°F-14.4°C -3.3°F-19.6°C 65% 1.2 mph NNE1.9 kmh NNE 2.3 mph3.7 kmh 30.19 in1022.4 mb - 0.00 in0.0 mm 0.00 in0.0 mm
03:20 AM 5.8°F-14.6°C -3.8°F-19.9°C 64% 1.2 mph N1.9 kmh N 11.5 mph18.5 kmh 30.20 in1022.7 mb - 0.00 in0.0 mm 0.00 in0.0 mm
03:30 AM 5.7°F-14.6°C -3.9°F-19.9°C 64% 2.3 mph N3.7 kmh N 4.6 mph7.4 kmh 30.21 in1023.0 mb - 0.00 in0.0 mm 0.00 in0.0 mm
03:40 AM 5.4°F-14.8°C -4.2°F-20.1°C 64% 1.2 mph NW1.9 kmh NW -- 30.21 in1023.0 mb - 0.00 in0.0 mm 0.00 in0.0 mm
03:50 AM 5.0°F-15.0°C -4.2°F-20.1°C 65% 1.2 mph NNW1.9 kmh NNW 3.5 mph5.6 kmh 30.21 in1023.0 mb - 0.00 in0.0 mm 0.00 in0.0 mm
04:00 AM 4.9°F-15.1°C -4.0°F-20.0°C 66% Calm Calm 2.3 mph3.7 kmh 30.22 in1023.4 mb - 0.00 in0.0 mm 0.00 in0.0 mm
04:10 AM 4.5°F-15.3°C -4.0°F-20.0°C 67% Calm Calm -- 30.22 in1023.4 mb - 0.00 in0.0 mm 0.00 in0.0 mm
04:20 AM 4.2°F-15.4°C -4.3°F-20.2°C 67% Calm Calm -- 30.22 in1023.4 mb - 0.00 in0.0 mm 0.00 in0.0 mm
04:30 AM 4.0°F-15.6°C -4.5°F-20.3°C 67% Calm Calm 3.5 mph5.6 kmh 30.23 in1023.7 mb - 0.00 in0.0 mm 0.00 in0.0 mm
04:40 AM 4.0°F-15.6°C -4.5°F-20.3°C 67% Calm Calm 2.3 mph3.7 kmh 30.23 in1023.7 mb - 0.00 in0.0 mm 0.00 in0.0 mm
04:50 AM 3.7°F-15.7°C -4.8°F-20.4°C 67% Calm Calm -- 30.23 in1023.7 mb - 0.00 in0.0 mm 0.00 in0.0 mm
05:00 AM 3.3°F-15.9°C -4.9°F-20.5°C 68% Calm Calm 2.3 mph3.7 kmh 30.23 in1023.7 mb - 0.00 in0.0 mm 0.00 in0.0 mm
05:10 AM 3.1°F-16.1°C -5.1°F-20.6°C 68% 1.2 mph NW1.9 kmh NW -- 30.23 in1023.7 mb - 0.00 in0.0 mm 0.00 in0.0 mm
05:20 AM 2.8°F-16.2°C -5.1°F-20.6°C 69% Calm Calm -- 30.25 in1024.4 mb - 0.00 in0.0 mm 0.00 in0.0 mm
05:30 AM 2.7°F-16.3°C -5.2°F-20.7°C 69% 1.2 mph NNW1.9 kmh NNW 3.5 mph5.6 kmh 30.25 in1024.4 mb - 0.00 in0.0 mm 0.00 in0.0 mm
05:40 AM 2.5°F-16.4°C -5.4°F-20.8°C 69% Calm Calm 1.2 mph1.9 kmh 30.24 in1024.0 mb - 0.00 in0.0 mm 0.00 in0.0 mm
05:50 AM 2.3°F-16.5°C -5.3°F-20.7°C 70% Calm Calm 3.5 mph5.6 kmh 30.25 in1024.4 mb - 0.00 in0.0 mm 0.00 in0.0 mm
06:00 AM 2.2°F-16.6°C -5.4°F-20.8°C 70% Calm Calm -- 30.26 in1024.7 mb - 0.00 in0.0 mm 0.00 in0.0 mm
06:10 AM 1.9°F-16.7°C -5.6°F-20.9°C 70% Calm Calm -- 30.26 in1024.7 mb - 0.00 in0.0 mm 0.00 in0.0 mm
06:20 AM 1.6°F-16.9°C -5.6°F-20.9°C 71% 1.2 mph NW1.9 kmh NW 3.5 mph5.6 kmh 30.26 in1024.7 mb - 0.00 in0.0 mm 0.00 in0.0 mm
06:30 AM 1.5°F-16.9°C -5.7°F-20.9°C 71% 1.2 mph NW1.9 kmh NW 2.3 mph3.7 kmh 30.27 in1025.1 mb - 0.00 in0.0 mm 0.00 in0.0 mm
06:40 AM 1.6°F-16.9°C -5.7°F-20.9°C 71% Calm Calm -- 30.27 in1025.1 mb - 0.00 in0.0 mm 0.00 in0.0 mm
06:50 AM 1.8°F-16.8°C -5.5°F-20.8°C 71% Calm Calm -- 30.28 in1025.4 mb - 0.00 in0.0 mm 0.00 in0.0 mm
07:00 AM 1.7°F-16.8°C -5.5°F-20.8°C 71% 1.2 mph NW1.9 kmh NW 3.5 mph5.6 kmh 30.28 in1025.4 mb - 0.00 in0.0 mm 0.00 in0.0 mm
07:10 AM 1.4°F-17.0°C -5.8°F-21.0°C 71% 1.2 mph NW1.9 kmh NW 3.5 mph5.6 kmh 30.28 in1025.4 mb - 0.00 in0.0 mm 0.00 in0.0 mm
07:20 AM 1.2°F-17.1°C -6.0°F-21.1°C 71% Calm Calm -- 30.28 in1025.4 mb - 0.00 in0.0 mm 0.00 in0.0 mm
07:30 AM 1.1°F-17.2°C -6.1°F-21.2°C 71% Calm Calm 3.5 mph5.6 kmh 30.29 in1025.7 mb - 0.00 in0.0 mm 0.00 in0.0 mm
07:40 AM 1.0°F-17.2°C -6.2°F-21.2°C 71% 1.2 mph NW1.9 kmh NW 3.5 mph5.6 kmh 30.29 in1025.7 mb - 0.00 in0.0 mm 0.00 in0.0 mm
07:50 AM 0.8°F-17.3°C -6.1°F-21.2°C 72% 1.2 mph NW1.9 kmh NW 3.5 mph5.6 kmh 30.29 in1025.7 mb - 0.00 in0.0 mm 0.00 in0.0 mm
08:00 AM 0.6°F-17.4°C -6.3°F-21.3°C 72% 2.3 mph NW3.7 kmh NW 2.3 mph3.7 kmh 30.29 in1025.7 mb - 0.00 in0.0 mm 0.00 in0.0 mm
08:10 AM 0.5°F-17.5°C -6.4°F-21.3°C 72% Calm Calm -- 30.29 in1025.7 mb - 0.00 in0.0 mm 0.00 in0.0 mm
08:20 AM 0.2°F-17.7°C -6.7°F-21.5°C 72% 1.2 mph NW1.9 kmh NW 2.3 mph3.7 kmh 30.30 in1026.1 mb - 0.00 in0.0 mm 0.00 in0.0 mm
08:30 AM 0.1°F-17.7°C -6.5°F-21.4°C 73% Calm Calm -- 30.30 in1026.1 mb - 0.00 in0.0 mm 0.00 in0.0 mm
08:40 AM 0.0°F-17.8°C -6.6°F-21.4°C 73% 1.2 mph WNW1.9 kmh WNW 2.3 mph3.7 kmh 30.30 in1026.1 mb - 0.00 in0.0 mm 0.00 in0.0 mm
08:50 AM 0.0°F-17.8°C -6.6°F-21.4°C 73% Calm Calm 1.2 mph1.9 kmh 30.31 in1026.4 mb - 0.00 in0.0 mm 0.00 in0.0 mm
09:00 AM 0.1°F-17.7°C -6.2°F-21.2°C 74% 1.2 mph WNW1.9 kmh WNW 5.8 mph9.3 kmh 30.31 in1026.4 mb - 0.00 in0.0 mm 0.00 in0.0 mm
09:10 AM 0.1°F-17.7°C -6.5°F-21.4°C 73% 1.2 mph NW1.9 kmh NW 5.8 mph9.3 kmh 30.32 in1026.8 mb - 0.00 in0.0 mm 0.00 in0.0 mm
09:20 AM 0.2°F-17.7°C -6.4°F-21.3°C 73% 2.3 mph WNW3.7 kmh WNW 5.8 mph9.3 kmh 30.32 in1026.8 mb - 0.00 in0.0 mm 0.00 in0.0 mm
09:30 AM 0.2°F-17.7°C -6.4°F-21.3°C 73% 2.3 mph NW3.7 kmh NW 4.6 mph7.4 kmh 30.33 in1027.1 mb - 0.00 in0.0 mm 0.00 in0.0 mm
09:40 AM 0.2°F-17.7°C -6.7°F-21.5°C 72% 2.3 mph WNW3.7 kmh WNW 5.8 mph9.3 kmh 30.33 in1027.1 mb - 0.00 in0.0 mm 0.00 in0.0 mm
09:50 AM 0.2°F-17.7°C -6.7°F-21.5°C 72% 3.5 mph NW5.6 kmh NW 3.5 mph5.6 kmh 30.34 in1027.4 mb - 0.00 in0.0 mm 0.00 in0.0 mm
10:00 AM 0.3°F-17.6°C -6.6°F-21.4°C 72% 3.5 mph NNW5.6 kmh NNW 5.8 mph9.3 kmh 30.34 in1027.4 mb - 0.00 in0.0 mm 0.00 in0.0 mm
10:10 AM 0.5°F-17.5°C -6.7°F-21.5°C 71% Calm Calm 8.1 mph13.0 kmh 30.35 in1027.8 mb - 0.00 in0.0 mm 0.00 in0.0 mm
10:20 AM 0.7°F-17.4°C -6.8°F-21.6°C 70% Calm Calm 3.5 mph5.6 kmh 30.35 in1027.8 mb - 0.00 in0.0 mm 0.00 in0.0 mm
10:30 AM 1.0°F-17.2°C -6.5°F-21.4°C 70% 3.5 mph NW5.6 kmh NW 8.1 mph13.0 kmh 30.35 in1027.8 mb - 0.00 in0.0 mm 0.00 in0.0 mm
10:40 AM 1.2°F-17.1°C -6.6°F-21.4°C 69% 3.5 mph NW5.6 kmh NW 9.2 mph14.8 kmh 30.35 in1027.8 mb - 0.00 in0.0 mm 0.00 in0.0 mm
10:50 AM 1.0°F-17.2°C -7.1°F-21.7°C 68% 2.3 mph NW3.7 kmh NW 6.9 mph11.1 kmh 30.35 in1027.8 mb - 0.00 in0.0 mm 0.00 in0.0 mm
11:00 AM 1.1°F-17.2°C -7.0°F-21.7°C 68% 2.3 mph NNW3.7 kmh NNW 6.9 mph11.1 kmh 30.35 in1027.8 mb - 0.00 in0.0 mm 0.00 in0.0 mm
11:10 AM 1.4°F-17.0°C -6.7°F-21.5°C 68% 3.5 mph NW5.6 kmh NW 4.6 mph7.4 kmh 30.35 in1027.8 mb - 0.00 in0.0 mm 0.00 in0.0 mm
11:20 AM 1.6°F-16.9°C -6.8°F-21.6°C 67% Calm Calm 1.2 mph1.9 kmh 30.36 in1028.1 mb - 0.00 in0.0 mm 0.00 in0.0 mm
11:30 AM 1.9°F-16.7°C -6.5°F-21.4°C 67% 2.3 mph NW3.7 kmh NW 3.5 mph5.6 kmh 30.36 in1028.1 mb - 0.00 in0.0 mm 0.00 in0.0 mm
11:40 AM 2.2°F-16.6°C -6.3°F-21.3°C 67% 1.2 mph NNW1.9 kmh NNW 2.3 mph3.7 kmh 30.36 in1028.1 mb - 0.00 in0.0 mm 0.00 in0.0 mm
11:50 AM 2.6°F-16.3°C -6.2°F-21.2°C 66% 2.3 mph NW3.7 kmh NW 3.5 mph5.6 kmh 30.36 in1028.1 mb - 0.00 in0.0 mm 0.00 in0.0 mm
12:00 PM 3.2°F-16.0°C -5.9°F-21.1°C 65% 1.2 mph NNW1.9 kmh NNW 3.5 mph5.6 kmh 30.35 in1027.8 mb - 0.00 in0.0 mm 0.00 in0.0 mm
12:10 PM 3.3°F-15.9°C -6.1°F-21.2°C 64% Calm Calm 3.5 mph5.6 kmh 30.35 in1027.8 mb - 0.00 in0.0 mm 0.00 in0.0 mm
12:20 PM 3.8°F-15.7°C -5.6°F-20.9°C 64% 1.2 mph NNW1.9 kmh NNW 2.3 mph3.7 kmh 30.34 in1027.4 mb - 0.00 in0.0 mm 0.00 in0.0 mm
12:30 PM 4.7°F-15.2°C -5.1°F-20.6°C 63% 1.2 mph NW1.9 kmh NW 3.5 mph5.6 kmh 30.34 in1027.4 mb - 0.00 in0.0 mm 0.00 in0.0 mm
12:40 PM 5.3°F-14.8°C -5.3°F-20.7°C 61% 2.3 mph WNW3.7 kmh WNW 3.5 mph5.6 kmh 30.33 in1027.1 mb - 0.00 in0.0 mm 0.00 in0.0 mm
12:50 PM 5.5°F-14.7°C -5.1°F-20.6°C 61% 2.3 mph NW3.7 kmh NW 4.6 mph7.4 kmh 30.34 in1027.4 mb - 0.00 in0.0 mm 0.00 in0.0 mm
01:00 PM 5.6°F-14.7°C -5.3°F-20.7°C 60% 1.2 mph N1.9 kmh N 3.5 mph5.6 kmh 30.34 in1027.4 mb - 0.00 in0.0 mm 0.00 in0.0 mm
01:10 PM 5.8°F-14.6°C -5.5°F-20.8°C 59% 1.2 mph NW1.9 kmh NW 2.3 mph3.7 kmh 30.34 in1027.4 mb - 0.00 in0.0 mm 0.00 in0.0 mm
01:20 PM 5.8°F-14.6°C -5.5°F-20.8°C 59% Calm Calm 4.6 mph7.4 kmh 30.34 in1027.4 mb - 0.00 in0.0 mm 0.00 in0.0 mm
01:30 PM 5.9°F-14.5°C -5.4°F-20.8°C 59% 2.3 mph WSW3.7 kmh WSW 6.9 mph11.1 kmh 30.34 in1027.4 mb - 0.00 in0.0 mm 0.00 in0.0 mm
01:40 PM 5.6°F-14.7°C -5.6°F-20.9°C 59% 1.2 mph NNW1.9 kmh NNW 3.5 mph5.6 kmh 30.34 in1027.4 mb - 0.00 in0.0 mm 0.00 in0.0 mm
01:50 PM 5.8°F-14.6°C -5.8°F-21.0°C 58% 2.3 mph NW3.7 kmh NW 13.8 mph22.2 kmh 30.35 in1027.8 mb - 0.00 in0.0 mm 0.00 in0.0 mm
02:00 PM 5.6°F-14.7°C -5.7°F-20.9°C 59% 2.3 mph NW3.7 kmh NW 4.6 mph7.4 kmh 30.34 in1027.4 mb - 0.00 in0.0 mm 0.00 in0.0 mm
06:00 PM 2.4°F-16.4°C -7.7°F-22.1°C 62% Calm Calm -- 30.38 in1028.8 mb - 0.00 in0.0 mm 0.00 in0.0 mm
06:10 PM 2.2°F-16.6°C -7.5°F-21.9°C 63% Calm Calm -- 30.38 in1028.8 mb - 0.00 in0.0 mm 0.00 in0.0 mm
06:20 PM 2.0°F-16.7°C -7.4°F-21.9°C 64% Calm Calm 3.5 mph5.6 kmh 30.39 in1029.1 mb - 0.00 in0.0 mm 0.00 in0.0 mm
06:30 PM 2.0°F-16.7°C -7.8°F-22.1°C 63% Calm Calm 2.3 mph3.7 kmh 30.39 in1029.1 mb - 0.00 in0.0 mm 0.00 in0.0 mm
06:40 PM 1.8°F-16.8°C -7.6°F-22.0°C 64% 2.3 mph NW3.7 kmh NW 1.2 mph1.9 kmh 30.40 in1029.5 mb - 0.00 in0.0 mm 0.00 in0.0 mm
06:50 PM 1.5°F-16.9°C -7.8°F-22.1°C 64% Calm Calm -- 30.39 in1029.1 mb - 0.00 in0.0 mm 0.00 in0.0 mm
07:00 PM 1.3°F-17.1°C -8.1°F-22.3°C 64% Calm Calm -- 30.39 in1029.1 mb - 0.00 in0.0 mm 0.00 in0.0 mm
07:10 PM 1.1°F-17.2°C -8.3°F-22.4°C 64% Calm Calm 3.5 mph5.6 kmh 30.39 in1029.1 mb - 0.00 in0.0 mm 0.00 in0.0 mm
07:20 PM 0.9°F-17.3°C -8.4°F-22.4°C 64% 1.2 mph NW1.9 kmh NW 2.3 mph3.7 kmh 30.40 in1029.5 mb - 0.00 in0.0 mm 0.00 in0.0 mm
07:30 PM 0.9°F-17.3°C -8.4°F-22.4°C 64% Calm Calm 4.6 mph7.4 kmh 30.40 in1029.5 mb - 0.00 in0.0 mm 0.00 in0.0 mm
07:40 PM 0.7°F-17.4°C -8.6°F-22.6°C 64% Calm Calm 3.5 mph5.6 kmh 30.40 in1029.5 mb - 0.00 in0.0 mm 0.00 in0.0 mm
07:50 PM 0.5°F-17.5°C -8.8°F-22.7°C 64% 1.2 mph NNW1.9 kmh NNW 3.5 mph5.6 kmh 30.40 in1029.5 mb - 0.00 in0.0 mm 0.00 in0.0 mm
08:00 PM 0.3°F-17.6°C -8.7°F-22.6°C 65% 1.2 mph NW1.9 kmh NW 2.3 mph3.7 kmh 30.41 in1029.8 mb - 0.00 in0.0 mm 0.00 in0.0 mm
08:10 PM 0.1°F-17.7°C -8.9°F-22.7°C 65% 1.2 mph NW1.9 kmh NW 2.3 mph3.7 kmh 30.41 in1029.8 mb - 0.00 in0.0 mm 0.00 in0.0 mm
08:20 PM 0.0°F-17.8°C -9.0°F-22.8°C 65% Calm Calm -- 30.41 in1029.8 mb - 0.00 in0.0 mm 0.00 in0.0 mm
08:30 PM -0.3°F-17.9°C -9.3°F-22.9°C 65% 1.2 mph NW1.9 kmh NW 1.2 mph1.9 kmh 30.41 in1029.8 mb - 0.00 in0.0 mm 0.00 in0.0 mm
08:40 PM -0.5°F-18.1°C -9.5°F-23.1°C 65% Calm Calm -- 30.41 in1029.8 mb - 0.00 in0.0 mm 0.00 in0.0 mm
08:50 PM -0.8°F-18.2°C -9.4°F-23.0°C 66% Calm Calm -- 30.41 in1029.8 mb - 0.00 in0.0 mm 0.00 in0.0 mm
09:00 PM -1.2°F-18.4°C -9.8°F-23.2°C 66% Calm Calm -- 30.41 in1029.8 mb - 0.00 in0.0 mm 0.00 in0.0 mm
09:10 PM -1.5°F-18.6°C -9.8°F-23.2°C 67% Calm Calm -- 30.42 in1030.1 mb - 0.00 in0.0 mm 0.00 in0.0 mm
09:20 PM -1.7°F-18.7°C -10.0°F-23.3°C 67% Calm Calm -- 30.42 in1030.1 mb - 0.00 in0.0 mm 0.00 in0.0 mm
09:30 PM -2.0°F-18.9°C -10.3°F-23.5°C 67% Calm Calm -- 30.42 in1030.1 mb - 0.00 in0.0 mm 0.00 in0.0 mm
09:40 PM -2.3°F-19.1°C -10.3°F-23.5°C 68% Calm Calm -- 30.43 in1030.5 mb - 0.00 in0.0 mm 0.00 in0.0 mm
09:50 PM -2.7°F-19.3°C -10.4°F-23.6°C 69% Calm Calm -- 30.44 in1030.8 mb - 0.00 in0.0 mm 0.00 in0.0 mm
10:00 PM -2.7°F-19.3°C -10.4°F-23.6°C 69% Calm Calm -- 30.44 in1030.8 mb - 0.00 in0.0 mm 0.00 in0.0 mm
10:10 PM -2.7°F-19.3°C -10.1°F-23.4°C 70% Calm Calm -- 30.44 in1030.8 mb - 0.00 in0.0 mm 0.00 in0.0 mm
10:20 PM -2.6°F-19.2°C -10.0°F-23.3°C 70% Calm Calm -- 30.44 in1030.8 mb - 0.00 in0.0 mm 0.00 in0.0 mm
10:30 PM -2.7°F-19.3°C -10.4°F-23.6°C 69% Calm Calm -- 30.45 in1031.2 mb - 0.00 in0.0 mm 0.00 in0.0 mm
10:40 PM -2.9°F-19.4°C -10.6°F-23.7°C 69% Calm Calm -- 30.45 in1031.2 mb - 0.00 in0.0 mm 0.00 in0.0 mm
10:50 PM -3.0°F-19.4°C -10.7°F-23.7°C 69% Calm Calm -- 30.45 in1031.2 mb - 0.00 in0.0 mm 0.00 in0.0 mm
11:00 PM -3.2°F-19.6°C -10.6°F-23.7°C 70% Calm Calm -- 30.45 in1031.2 mb - 0.00 in0.0 mm 0.00 in0.0 mm
11:10 PM -3.4°F-19.7°C -10.7°F-23.7°C 70% Calm Calm -- 30.45 in1031.2 mb - 0.00 in0.0 mm 0.00 in0.0 mm
11:20 PM -3.5°F-19.7°C -10.8°F-23.8°C 70% Calm Calm -- 30.45 in1031.2 mb - 0.00 in0.0 mm 0.00 in0.0 mm
11:30 PM -3.8°F-19.9°C -11.2°F-24.0°C 70% Calm Calm -- 30.45 in1031.2 mb - 0.00 in0.0 mm 0.00 in0.0 mm
11:40 PM -4.1°F-20.1°C -11.5°F-24.2°C 70% Calm Calm -- 30.46 in1031.5 mb - 0.00 in0.0 mm 0.00 in0.0 mm
11:50 PM -4.4°F-20.2°C -11.4°F-24.1°C 71% Calm Calm -- 30.46 in1031.5 mb - 0.00 in0.0 mm 0.00 in0.0 mm